Terminal Aerodrome Forecast
Issued by NWS

Home | Current Version | Previous Version | Text Only | Print | Product List | Glossary On
Versions: 1 2 3 4 5 6 7 8 9 10 11 12 13 14 15 16 17 18 19 20 21 22 23 24 25 26 27 28 29 30
346
FTUS43 KGRR 221128
TAFLAN
TAF
KLAN 221128Z 2212/2312 17007KT P6SM SCT150 BKN250
     FM221800 18014G24KT P6SM FEW250
     FM230700 19012KT 6SM -SHRA BR BKN080 WS020/21045KT
     FM230900 19012KT P6SM BKN045 WS020/22040KT
     FM231100 21010KT P6SM OVC017=

USA.gov is the U.S. government's official web portal to all federal, state and local government web resources and services.